sensor_id;sensor_type;location;lat;lon;timestamp;P1;durP1;ratioP1;P2;durP2;ratioP2
68140;SDS011;54941;52.220;104.306;2023-04-19T01:08:09;8.48;;;3.70;;
68140;SDS011;54941;52.220;104.306;2023-04-19T01:10:35;10.50;;;3.47;;
68140;SDS011;54941;52.220;104.306;2023-04-19T01:13:02;8.55;;;2.88;;
68140;SDS011;54941;52.220;104.306;2023-04-19T01:15:28;18.70;;;5.32;;
68140;SDS011;54941;52.220;104.306;2023-04-19T01:17:55;9.27;;;3.53;;
68140;SDS011;54941;52.220;104.306;2023-04-19T01:20:21;6.88;;;3.40;;
68140;SDS011;54941;52.220;104.306;2023-04-19T01:22:49;8.60;;;4.38;;
68140;SDS011;54941;52.220;104.306;2023-04-19T01:25:16;7.53;;;3.15;;
68140;SDS011;54941;52.220;104.306;2023-04-19T01:27:42;5.50;;;3.60;;
68140;SDS011;54941;52.220;104.306;2023-04-19T01:30:09;6.20;;;2.85;;
68140;SDS011;54941;52.220;104.306;2023-04-19T01:32:35;11.07;;;3.70;;
68140;SDS011;54941;52.220;104.306;2023-04-19T01:35:02;6.30;;;2.90;;
68140;SDS011;54941;52.220;104.306;2023-04-19T01:37:29;6.32;;;2.20;;
68140;SDS011;54941;52.220;104.306;2023-04-19T01:39:57;7.97;;;2.65;;
68140;SDS011;54941;52.220;104.306;2023-04-19T01:42:23;7.68;;;2.60;;
68140;SDS011;54941;52.220;104.306;2023-04-19T01:44:49;7.10;;;3.25;;
68140;SDS011;54941;52.220;104.306;2023-04-19T01:47:16;6.75;;;2.80;;
68140;SDS011;54941;52.220;104.306;2023-04-19T01:49:42;9.55;;;2.40;;
68140;SDS011;54941;52.220;104.306;2023-04-19T01:52:08;9.25;;;3.60;;
68140;SDS011;54941;52.220;104.306;2023-04-19T01:54:35;6.90;;;3.20;;
68140;SDS011;54941;52.220;104.306;2023-04-19T01:57:02;6.60;;;2.88;;
68140;SDS011;54941;52.220;104.306;2023-04-19T01:59:29;9.48;;;3.58;;
68140;SDS011;54941;52.220;104.306;2023-04-19T02:01:55;9.45;;;2.50;;
68140;SDS011;54941;52.220;104.306;2023-04-19T02:04:22;7.32;;;2.40;;
68140;SDS011;54941;52.220;104.306;2023-04-19T02:06:48;5.90;;;2.45;;
68140;SDS011;54941;52.220;104.306;2023-04-19T02:09:14;8.00;;;2.80;;
68140;SDS011;54941;52.220;104.306;2023-04-19T02:11:41;8.85;;;2.42;;
68140;SDS011;54941;52.220;104.306;2023-04-19T02:14:08;4.68;;;2.00;;
68140;SDS011;54941;52.220;104.306;2023-04-19T02:16:35;7.25;;;2.45;;
68140;SDS011;54941;52.220;104.306;2023-04-19T02:19:01;6.80;;;2.50;;
68140;SDS011;54941;52.220;104.306;2023-04-19T02:21:27;7.60;;;2.75;;
68140;SDS011;54941;52.220;104.306;2023-04-19T02:23:54;8.50;;;2.50;;
68140;SDS011;54941;52.220;104.306;2023-04-19T02:26:20;8.60;;;2.75;;
68140;SDS011;54941;52.220;104.306;2023-04-19T02:28:46;4.85;;;1.80;;
68140;SDS011;54941;52.220;104.306;2023-04-19T02:31:16;6.13;;;1.67;;
68140;SDS011;54941;52.220;104.306;2023-04-19T02:33:42;6.25;;;2.20;;
68140;SDS011;54941;52.220;104.306;2023-04-19T02:36:09;8.55;;;2.80;;
68140;SDS011;54941;52.220;104.306;2023-04-19T02:38:35;10.27;;;2.72;;
68140;SDS011;54941;52.220;104.306;2023-04-19T02:41:01;6.97;;;2.67;;
68140;SDS011;54941;52.220;104.306;2023-04-19T02:43:28;8.73;;;2.20;;
68140;SDS011;54941;52.220;104.306;2023-04-19T02:45:54;4.95;;;1.45;;
68140;SDS011;54941;52.220;104.306;2023-04-19T02:48:22;2.80;;;1.08;;
68140;SDS011;54941;52.220;104.306;2023-04-19T02:50:48;2.88;;;1.17;;
68140;SDS011;54941;52.220;104.306;2023-04-19T02:53:15;2.83;;;1.27;;
68140;SDS011;54941;52.220;104.306;2023-04-19T02:55:41;1.75;;;1.20;;
68140;SDS011;54941;52.220;104.306;2023-04-19T02:58:08;2.30;;;1.60;;
68140;SDS011;54941;52.220;104.306;2023-04-19T03:00:34;3.42;;;1.70;;
68140;SDS011;54941;52.220;104.306;2023-04-19T03:03:00;2.92;;;1.40;;
68140;SDS011;54941;52.220;104.306;2023-04-19T03:05:28;2.80;;;1.25;;
68140;SDS011;54941;52.220;104.306;2023-04-19T03:07:55;4.55;;;1.90;;
68140;SDS011;54941;52.220;104.306;2023-04-19T03:10:21;3.42;;;1.55;;
68140;SDS011;54941;52.220;104.306;2023-04-19T03:12:48;3.63;;;2.00;;
68140;SDS011;54941;52.220;104.306;2023-04-19T03:15:14;3.95;;;1.88;;
68140;SDS011;54941;52.220;104.306;2023-04-19T03:17:40;2.33;;;1.88;;
68140;SDS011;54941;52.220;104.306;2023-04-19T03:20:07;2.97;;;1.70;;
68140;SDS011;54941;52.220;104.306;2023-04-19T03:22:35;4.25;;;1.95;;
68140;SDS011;54941;52.220;104.306;2023-04-19T03:25:02;2.95;;;1.73;;
68140;SDS011;54941;52.220;104.306;2023-04-19T03:27:29;4.95;;;2.30;;
68140;SDS011;54941;52.220;104.306;2023-04-19T03:29:55;4.15;;;1.83;;
68140;SDS011;54941;52.220;104.306;2023-04-19T03:32:22;3.72;;;1.90;;
68140;SDS011;54941;52.220;104.306;2023-04-19T03:34:48;2.78;;;1.80;;
68140;SDS011;54941;52.220;104.306;2023-04-19T03:37:14;3.78;;;1.83;;
68140;SDS011;54941;52.220;104.306;2023-04-19T03:39:42;3.95;;;2.25;;
68140;SDS011;54941;52.220;104.306;2023-04-19T03:42:09;5.03;;;2.40;;
68140;SDS011;54941;52.220;104.306;2023-04-19T03:44:35;5.90;;;2.92;;
68140;SDS011;54941;52.220;104.306;2023-04-19T03:47:01;4.03;;;1.98;;
68140;SDS011;54941;52.220;104.306;2023-04-19T03:49:28;4.65;;;2.50;;
68140;SDS011;54941;52.220;104.306;2023-04-19T03:51:54;3.58;;;2.10;;
68140;SDS011;54941;52.220;104.306;2023-04-19T03:54:20;5.90;;;3.63;;
68140;SDS011;54941;52.220;104.306;2023-04-19T03:56:48;7.25;;;3.55;;
68140;SDS011;54941;52.220;104.306;2023-04-19T03:59:14;6.13;;;3.42;;
68140;SDS011;54941;52.220;104.306;2023-04-19T04:02:30;7.53;;;3.92;;
68140;SDS011;54941;52.220;104.306;2023-04-19T04:05:55;6.55;;;3.35;;
68140;SDS011;54941;52.220;104.306;2023-04-19T04:08:42;6.05;;;3.10;;
68140;SDS011;54941;52.220;104.306;2023-04-19T04:12:08;7.18;;;4.20;;
68140;SDS011;54941;52.220;104.306;2023-04-19T04:15:33;6.72;;;4.18;;
68140;SDS011;54941;52.220;104.306;2023-04-19T04:18:14;6.25;;;3.70;;
68140;SDS011;54941;52.220;104.306;2023-04-19T04:20:44;5.40;;;2.65;;
68140;SDS011;54941;52.220;104.306;2023-04-19T04:23:10;5.72;;;2.92;;
68140;SDS011;54941;52.220;104.306;2023-04-19T04:25:37;6.22;;;3.67;;
68140;SDS011;54941;52.220;104.306;2023-04-19T04:28:04;5.85;;;3.40;;
68140;SDS011;54941;52.220;104.306;2023-04-19T04:30:31;7.72;;;3.20;;
68140;SDS011;54941;52.220;104.306;2023-04-19T04:32:57;4.40;;;3.05;;
68140;SDS011;54941;52.220;104.306;2023-04-19T04:35:24;5.72;;;2.90;;
68140;SDS011;54941;52.220;104.306;2023-04-19T04:37:50;5.20;;;2.65;;
68140;SDS011;54941;52.220;104.306;2023-04-19T04:40:17;5.05;;;2.38;;
68140;SDS011;54941;52.220;104.306;2023-04-19T04:42:43;5.18;;;2.97;;
68140;SDS011;54941;52.220;104.306;2023-04-19T04:45:11;5.70;;;2.97;;
68140;SDS011;54941;52.220;104.306;2023-04-19T04:47:38;5.30;;;3.38;;
68140;SDS011;54941;52.220;104.306;2023-04-19T04:50:04;4.90;;;2.63;;
68140;SDS011;54941;52.220;104.306;2023-04-19T04:52:32;4.22;;;2.70;;
68140;SDS011;54941;52.220;104.306;2023-04-19T04:54:58;4.32;;;2.35;;
68140;SDS011;54941;52.220;104.306;2023-04-19T04:57:24;6.93;;;3.60;;
68140;SDS011;54941;52.220;104.306;2023-04-19T04:59:51;5.60;;;3.10;;
68140;SDS011;54941;52.220;104.306;2023-04-19T05:02:18;4.57;;;2.38;;
68140;SDS011;54941;52.220;104.306;2023-04-19T05:04:45;4.85;;;2.70;;
68140;SDS011;54941;52.220;104.306;2023-04-19T05:07:11;5.97;;;2.92;;
68140;SDS011;54941;52.220;104.306;2023-04-19T05:09:37;5.63;;;3.05;;
68140;SDS011;54941;52.220;104.306;2023-04-19T05:12:04;6.20;;;2.72;;
68140;SDS011;54941;52.220;104.306;2023-04-19T05:14:31;6.20;;;3.20;;
68140;SDS011;54941;52.220;104.306;2023-04-19T05:16:57;6.25;;;3.47;;
68140;SDS011;54941;52.220;104.306;2023-04-19T05:19:25;5.43;;;3.22;;
68140;SDS011;54941;52.220;104.306;2023-04-19T05:21:51;7.65;;;3.75;;
68140;SDS011;54941;52.220;104.306;2023-04-19T05:25:21;5.18;;;3.28;;
68140;SDS011;54941;52.220;104.306;2023-04-19T05:32:10;5.43;;;3.08;;
68140;SDS011;54941;52.220;104.306;2023-04-19T05:35:36;4.43;;;2.30;;
68140;SDS011;54941;52.220;104.306;2023-04-19T05:39:01;4.97;;;2.65;;
68140;SDS011;54941;52.220;104.306;2023-04-19T05:42:25;5.25;;;2.85;;
68140;SDS011;54941;52.220;104.306;2023-04-19T05:44:53;5.32;;;3.33;;
68140;SDS011;54941;52.220;104.306;2023-04-19T05:47:20;6.78;;;3.83;;
68140;SDS011;54941;52.220;104.306;2023-04-19T05:49:48;3.78;;;2.75;;
68140;SDS011;54941;52.220;104.306;2023-04-19T05:52:16;4.95;;;2.28;;
68140;SDS011;54941;52.220;104.306;2023-04-19T05:55:25;4.25;;;2.30;;
68140;SDS011;54941;52.220;104.306;2023-04-19T05:57:51;6.43;;;3.38;;
68140;SDS011;54941;52.220;104.306;2023-04-19T06:00:18;5.28;;;3.00;;
68140;SDS011;54941;52.220;104.306;2023-04-19T06:02:44;4.35;;;2.28;;
68140;SDS011;54941;52.220;104.306;2023-04-19T06:05:11;4.30;;;2.10;;
68140;SDS011;54941;52.220;104.306;2023-04-19T06:07:39;4.88;;;2.65;;
68140;SDS011;54941;52.220;104.306;2023-04-19T06:10:05;5.45;;;2.50;;
68140;SDS011;54941;52.220;104.306;2023-04-19T06:12:33;4.63;;;2.15;;
68140;SDS011;54941;52.220;104.306;2023-04-19T06:14:59;4.43;;;2.63;;
68140;SDS011;54941;52.220;104.306;2023-04-19T06:17:25;4.85;;;2.83;;
68140;SDS011;54941;52.220;104.306;2023-04-19T06:19:52;4.82;;;3.33;;
68140;SDS011;54941;52.220;104.306;2023-04-19T06:22:19;4.57;;;3.00;;
68140;SDS011;54941;52.220;104.306;2023-04-19T06:24:47;3.33;;;2.45;;
68140;SDS011;54941;52.220;104.306;2023-04-19T06:27:14;3.22;;;1.80;;
68140;SDS011;54941;52.220;104.306;2023-04-19T06:29:41;4.78;;;2.25;;
68140;SDS011;54941;52.220;104.306;2023-04-19T06:32:07;4.53;;;1.80;;
68140;SDS011;54941;52.220;104.306;2023-04-19T06:34:34;7.32;;;2.28;;
68140;SDS011;54941;52.220;104.306;2023-04-19T06:37:00;5.47;;;3.30;;
68140;SDS011;54941;52.220;104.306;2023-04-19T06:39:27;5.22;;;2.72;;
68140;SDS011;54941;52.220;104.306;2023-04-19T06:41:55;7.38;;;3.22;;
68140;SDS011;54941;52.220;104.306;2023-04-19T06:44:21;6.85;;;2.92;;
68140;SDS011;54941;52.220;104.306;2023-04-19T06:46:47;7.80;;;2.85;;
68140;SDS011;54941;52.220;104.306;2023-04-19T06:49:14;5.45;;;2.60;;
68140;SDS011;54941;52.220;104.306;2023-04-19T06:51:40;5.55;;;2.97;;
68140;SDS011;54941;52.220;104.306;2023-04-19T06:54:06;6.13;;;2.80;;
68140;SDS011;54941;52.220;104.306;2023-04-19T06:56:39;4.97;;;2.95;;
68140;SDS011;54941;52.220;104.306;2023-04-19T06:59:08;6.07;;;3.10;;
68140;SDS011;54941;52.220;104.306;2023-04-19T07:01:35;7.38;;;3.13;;
68140;SDS011;54941;52.220;104.306;2023-04-19T07:04:01;5.32;;;2.63;;
68140;SDS011;54941;52.220;104.306;2023-04-19T07:06:27;7.53;;;3.53;;
68140;SDS011;54941;52.220;104.306;2023-04-19T07:08:54;8.52;;;3.92;;
68140;SDS011;54941;52.220;104.306;2023-04-19T07:11:20;8.32;;;2.88;;
68140;SDS011;54941;52.220;104.306;2023-04-19T07:13:46;4.95;;;2.42;;
68140;SDS011;54941;52.220;104.306;2023-04-19T07:16:14;5.47;;;2.58;;
68140;SDS011;54941;52.220;104.306;2023-04-19T07:18:41;5.15;;;2.60;;
68140;SDS011;54941;52.220;104.306;2023-04-19T07:21:07;4.38;;;2.70;;
68140;SDS011;54941;52.220;104.306;2023-04-19T07:23:34;7.80;;;2.85;;
68140;SDS011;54941;52.220;104.306;2023-04-19T07:26:00;5.93;;;2.90;;
68140;SDS011;54941;52.220;104.306;2023-04-19T07:28:27;6.15;;;2.20;;
68140;SDS011;54941;52.220;104.306;2023-04-19T07:30:53;4.45;;;2.47;;
68140;SDS011;54941;52.220;104.306;2023-04-19T07:33:22;5.70;;;2.97;;
68140;SDS011;54941;52.220;104.306;2023-04-19T07:35:49;6.75;;;2.92;;
68140;SDS011;54941;52.220;104.306;2023-04-19T07:38:15;5.20;;;2.90;;
68140;SDS011;54941;52.220;104.306;2023-04-19T07:40:41;5.35;;;1.98;;
68140;SDS011;54941;52.220;104.306;2023-04-19T07:43:08;3.63;;;2.47;;
68140;SDS011;54941;52.220;104.306;2023-04-19T07:45:34;4.13;;;2.40;;
68140;SDS011;54941;52.220;104.306;2023-04-19T07:48:00;6.20;;;2.50;;
68140;SDS011;54941;52.220;104.306;2023-04-19T07:50:28;5.57;;;1.83;;
68140;SDS011;54941;52.220;104.306;2023-04-19T07:52:55;6.55;;;2.35;;
68140;SDS011;54941;52.220;104.306;2023-04-19T07:55:21;4.80;;;2.28;;
68140;SDS011;54941;52.220;104.306;2023-04-19T07:57:48;3.95;;;2.35;;
68140;SDS011;54941;52.220;104.306;2023-04-19T08:00:15;5.43;;;2.45;;
68140;SDS011;54941;52.220;104.306;2023-04-19T08:02:42;3.58;;;1.88;;
68140;SDS011;54941;52.220;104.306;2023-04-19T08:05:09;3.35;;;2.28;;
68140;SDS011;54941;52.220;104.306;2023-04-19T08:07:37;4.28;;;2.42;;
68140;SDS011;54941;52.220;104.306;2023-04-19T08:10:03;3.97;;;2.65;;
68140;SDS011;54941;52.220;104.306;2023-04-19T08:12:31;4.88;;;2.40;;
68140;SDS011;54941;52.220;104.306;2023-04-19T08:14:57;5.65;;;2.55;;
68140;SDS011;54941;52.220;104.306;2023-04-19T08:17:23;4.40;;;2.10;;
68140;SDS011;54941;52.220;104.306;2023-04-19T08:19:50;4.35;;;2.50;;
68140;SDS011;54941;52.220;104.306;2023-04-19T08:22:18;4.40;;;2.40;;
68140;SDS011;54941;52.220;104.306;2023-04-19T08:24:47;4.72;;;2.55;;
68140;SDS011;54941;52.220;104.306;2023-04-19T08:27:14;3.35;;;2.03;;
68140;SDS011;54941;52.220;104.306;2023-04-19T08:29:40;3.42;;;2.33;;
68140;SDS011;54941;52.220;104.306;2023-04-19T08:32:07;5.82;;;3.80;;
68140;SDS011;54941;52.220;104.306;2023-04-19T08:34:33;4.10;;;2.90;;
68140;SDS011;54941;52.220;104.306;2023-04-19T08:37:00;5.95;;;2.90;;
68140;SDS011;54941;52.220;104.306;2023-04-19T08:39:26;4.07;;;2.10;;
68140;SDS011;54941;52.220;104.306;2023-04-19T08:41:54;5.25;;;2.80;;
68140;SDS011;54941;52.220;104.306;2023-04-19T08:44:21;3.58;;;1.90;;
68140;SDS011;54941;52.220;104.306;2023-04-19T08:46:48;3.58;;;1.73;;
68140;SDS011;54941;52.220;104.306;2023-04-19T08:49:15;3.70;;;1.90;;
68140;SDS011;54941;52.220;104.306;2023-04-19T08:51:42;4.70;;;2.20;;
68140;SDS011;54941;52.220;104.306;2023-04-19T08:54:09;4.28;;;2.60;;
68140;SDS011;54941;52.220;104.306;2023-04-19T08:56:36;4.32;;;2.30;;
68140;SDS011;54941;52.220;104.306;2023-04-19T08:59:04;3.50;;;2.35;;
68140;SDS011;54941;52.220;104.306;2023-04-19T09:01:30;3.00;;;1.75;;
68140;SDS011;54941;52.220;104.306;2023-04-19T09:03:57;4.38;;;1.95;;
68140;SDS011;54941;52.220;104.306;2023-04-19T09:06:23;5.97;;;2.78;;
68140;SDS011;54941;52.220;104.306;2023-04-19T09:08:49;4.15;;;2.00;;
68140;SDS011;54941;52.220;104.306;2023-04-19T09:11:16;3.95;;;1.85;;
68140;SDS011;54941;52.220;104.306;2023-04-19T09:13:42;3.92;;;2.22;;
68140;SDS011;54941;52.220;104.306;2023-04-19T09:16:23;3.55;;;2.22;;
68140;SDS011;54941;52.220;104.306;2023-04-19T09:18:52;3.22;;;2.20;;
68140;SDS011;54941;52.220;104.306;2023-04-19T09:21:26;2.60;;;1.50;;
68140;SDS011;54941;52.220;104.306;2023-04-19T09:23:53;3.72;;;2.00;;
68140;SDS011;54941;52.220;104.306;2023-04-19T09:26:19;2.90;;;1.60;;
68140;SDS011;54941;52.220;104.306;2023-04-19T09:28:54;2.65;;;1.65;;
68140;SDS011;54941;52.220;104.306;2023-04-19T09:31:21;3.20;;;2.13;;
68140;SDS011;54941;52.220;104.306;2023-04-19T09:33:49;3.95;;;1.60;;
68140;SDS011;54941;52.220;104.306;2023-04-19T09:36:25;2.65;;;1.90;;
68140;SDS011;54941;52.220;104.306;2023-04-19T09:38:52;3.47;;;1.63;;
68140;SDS011;54941;52.220;104.306;2023-04-19T09:41:18;4.15;;;2.75;;
68140;SDS011;54941;52.220;104.306;2023-04-19T09:43:45;3.75;;;2.10;;
68140;SDS011;54941;52.220;104.306;2023-04-19T09:51:41;4.13;;;2.30;;
68140;SDS011;54941;52.220;104.306;2023-04-19T09:54:09;3.85;;;1.85;;
68140;SDS011;54941;52.220;104.306;2023-04-19T09:56:36;4.18;;;1.55;;
68140;SDS011;54941;52.220;104.306;2023-04-19T09:59:03;3.22;;;1.70;;
68140;SDS011;54941;52.220;104.306;2023-04-19T10:01:33;4.00;;;2.03;;
68140;SDS011;54941;52.220;104.306;2023-04-19T10:04:03;3.65;;;1.60;;
68140;SDS011;54941;52.220;104.306;2023-04-19T10:06:30;3.50;;;1.98;;
68140;SDS011;54941;52.220;104.306;2023-04-19T10:08:56;3.70;;;2.22;;
68140;SDS011;54941;52.220;104.306;2023-04-19T10:11:26;3.00;;;1.88;;
68140;SDS011;54941;52.220;104.306;2023-04-19T10:13:58;2.72;;;1.73;;
68140;SDS011;54941;52.220;104.306;2023-04-19T10:16:26;4.30;;;2.58;;
68140;SDS011;54941;52.220;104.306;2023-04-19T10:18:56;3.05;;;1.58;;
68140;SDS011;54941;52.220;104.306;2023-04-19T10:21:23;2.50;;;1.63;;
68140;SDS011;54941;52.220;104.306;2023-04-19T10:23:52;3.15;;;1.63;;
68140;SDS011;54941;52.220;104.306;2023-04-19T10:26:18;3.38;;;1.70;;
68140;SDS011;54941;52.220;104.306;2023-04-19T10:28:45;3.72;;;1.88;;
68140;SDS011;54941;52.220;104.306;2023-04-19T10:31:12;3.72;;;1.90;;
68140;SDS011;54941;52.220;104.306;2023-04-19T10:33:39;3.15;;;1.67;;
68140;SDS011;54941;52.220;104.306;2023-04-19T10:36:09;4.25;;;2.00;;
68140;SDS011;54941;52.220;104.306;2023-04-19T10:38:38;3.80;;;2.03;;
68140;SDS011;54941;52.220;104.306;2023-04-19T10:41:05;4.47;;;2.08;;
68140;SDS011;54941;52.220;104.306;2023-04-19T10:43:32;2.75;;;1.80;;
68140;SDS011;54941;52.220;104.306;2023-04-19T10:45:59;2.75;;;1.60;;
68140;SDS011;54941;52.220;104.306;2023-04-19T10:48:33;3.80;;;2.60;;
68140;SDS011;54941;52.220;104.306;2023-04-19T10:51:04;3.42;;;2.10;;
68140;SDS011;54941;52.220;104.306;2023-04-19T10:53:43;3.55;;;2.40;;
68140;SDS011;54941;52.220;104.306;2023-04-19T10:56:17;4.32;;;1.80;;
68140;SDS011;54941;52.220;104.306;2023-04-19T11:01:42;3.55;;;2.38;;
68140;SDS011;54941;52.220;104.306;2023-04-19T11:04:10;3.25;;;1.92;;
68140;SDS011;54941;52.220;104.306;2023-04-19T11:06:55;4.85;;;2.28;;
68140;SDS011;54941;52.220;104.306;2023-04-19T11:09:23;4.40;;;1.98;;
68140;SDS011;54941;52.220;104.306;2023-04-19T11:11:51;2.47;;;1.70;;
68140;SDS011;54941;52.220;104.306;2023-04-19T11:14:17;2.78;;;1.75;;
68140;SDS011;54941;52.220;104.306;2023-04-19T11:16:45;3.47;;;2.35;;
68140;SDS011;54941;52.220;104.306;2023-04-19T11:19:13;4.30;;;2.03;;
68140;SDS011;54941;52.220;104.306;2023-04-19T11:21:41;3.58;;;1.90;;
68140;SDS011;54941;52.220;104.306;2023-04-19T11:24:10;2.58;;;1.70;;
68140;SDS011;54941;52.220;104.306;2023-04-19T11:26:36;3.65;;;1.80;;
68140;SDS011;54941;52.220;104.306;2023-04-19T11:29:03;3.97;;;1.90;;
68140;SDS011;54941;52.220;104.306;2023-04-19T11:31:30;5.82;;;3.30;;
68140;SDS011;54941;52.220;104.306;2023-04-19T11:33:57;7.15;;;3.63;;
68140;SDS011;54941;52.220;104.306;2023-04-19T11:36:24;6.72;;;2.30;;
68140;SDS011;54941;52.220;104.306;2023-04-19T11:38:52;5.22;;;2.30;;
68140;SDS011;54941;52.220;104.306;2023-04-19T11:41:18;4.07;;;2.60;;
68140;SDS011;54941;52.220;104.306;2023-04-19T11:43:45;5.47;;;3.13;;
68140;SDS011;54941;52.220;104.306;2023-04-19T11:46:12;17.23;;;5.55;;
68140;SDS011;54941;52.220;104.306;2023-04-19T11:48:49;20.45;;;6.25;;
68140;SDS011;54941;52.220;104.306;2023-04-19T11:51:16;14.90;;;4.63;;
68140;SDS011;54941;52.220;104.306;2023-04-19T11:53:42;18.10;;;5.43;;
68140;SDS011;54941;52.220;104.306;2023-04-19T11:56:10;15.45;;;4.72;;
68140;SDS011;54941;52.220;104.306;2023-04-19T11:58:37;20.25;;;6.13;;
68140;SDS011;54941;52.220;104.306;2023-04-19T12:01:06;18.20;;;5.13;;
68140;SDS011;54941;52.220;104.306;2023-04-19T12:03:34;16.77;;;4.88;;
68140;SDS011;54941;52.220;104.306;2023-04-19T12:06:11;17.08;;;5.65;;
68140;SDS011;54941;52.220;104.306;2023-04-19T12:08:41;22.83;;;6.35;;
68140;SDS011;54941;52.220;104.306;2023-04-19T12:13:36;25.15;;;6.20;;
68140;SDS011;54941;52.220;104.306;2023-04-19T12:16:02;24.23;;;6.72;;
68140;SDS011;54941;52.220;104.306;2023-04-19T12:18:41;23.65;;;6.90;;
68140;SDS011;54941;52.220;104.306;2023-04-19T12:21:08;21.13;;;6.07;;
68140;SDS011;54941;52.220;104.306;2023-04-19T12:23:35;23.75;;;6.80;;
68140;SDS011;54941;52.220;104.306;2023-04-19T12:26:02;15.73;;;5.15;;
68140;SDS011;54941;52.220;104.306;2023-04-19T12:28:29;18.33;;;5.22;;
68140;SDS011;54941;52.220;104.306;2023-04-19T12:30:57;26.55;;;5.80;;
68140;SDS011;54941;52.220;104.306;2023-04-19T12:33:24;20.42;;;5.40;;
68140;SDS011;54941;52.220;104.306;2023-04-19T12:35:50;18.08;;;5.68;;
68140;SDS011;54941;52.220;104.306;2023-04-19T12:38:16;14.65;;;5.72;;
68140;SDS011;54941;52.220;104.306;2023-04-19T12:40:43;15.38;;;4.95;;
68140;SDS011;54941;52.220;104.306;2023-04-19T12:43:09;14.98;;;4.97;;
68140;SDS011;54941;52.220;104.306;2023-04-19T12:45:35;15.10;;;6.47;;
68140;SDS011;54941;52.220;104.306;2023-04-19T12:48:03;18.25;;;6.13;;
68140;SDS011;54941;52.220;104.306;2023-04-19T12:50:30;12.52;;;5.07;;
68140;SDS011;54941;52.220;104.306;2023-04-19T12:52:56;9.05;;;5.22;;
68140;SDS011;54941;52.220;104.306;2023-04-19T12:55:23;10.18;;;4.72;;
68140;SDS011;54941;52.220;104.306;2023-04-19T12:57:49;7.07;;;3.97;;
68140;SDS011;54941;52.220;104.306;2023-04-19T13:00:16;8.23;;;4.20;;
68140;SDS011;54941;52.220;104.306;2023-04-19T13:02:42;9.77;;;4.88;;
68140;SDS011;54941;52.220;104.306;2023-04-19T13:05:10;12.23;;;4.30;;
68140;SDS011;54941;52.220;104.306;2023-04-19T13:07:37;11.38;;;4.72;;
68140;SDS011;54941;52.220;104.306;2023-04-19T13:10:03;9.98;;;4.65;;
68140;SDS011;54941;52.220;104.306;2023-04-19T13:12:31;9.95;;;4.70;;
68140;SDS011;54941;52.220;104.306;2023-04-19T13:15:03;9.20;;;4.85;;
68140;SDS011;54941;52.220;104.306;2023-04-19T13:17:29;12.15;;;4.93;;
68140;SDS011;54941;52.220;104.306;2023-04-19T13:19:56;13.40;;;6.03;;
68140;SDS011;54941;52.220;104.306;2023-04-19T13:22:24;10.65;;;5.63;;
68140;SDS011;54941;52.220;104.306;2023-04-19T13:24:51;7.88;;;4.10;;
68140;SDS011;54941;52.220;104.306;2023-04-19T13:27:17;12.98;;;5.47;;
68140;SDS011;54941;52.220;104.306;2023-04-19T13:29:44;10.60;;;5.28;;
68140;SDS011;54941;52.220;104.306;2023-04-19T13:32:10;9.32;;;4.97;;
68140;SDS011;54941;52.220;104.306;2023-04-19T13:34:37;8.93;;;5.10;;
68140;SDS011;54941;52.220;104.306;2023-04-19T13:37:03;6.30;;;4.25;;
68140;SDS011;54941;52.220;104.306;2023-04-19T13:39:31;7.80;;;4.32;;
68140;SDS011;54941;52.220;104.306;2023-04-19T13:41:57;8.40;;;4.28;;
68140;SDS011;54941;52.220;104.306;2023-04-19T13:44:25;6.60;;;4.57;;
68140;SDS011;54941;52.220;104.306;2023-04-19T13:46:51;6.10;;;3.85;;
68140;SDS011;54941;52.220;104.306;2023-04-19T13:49:18;6.43;;;3.50;;
68140;SDS011;54941;52.220;104.306;2023-04-19T13:51:44;7.18;;;3.47;;
68140;SDS011;54941;52.220;104.306;2023-04-19T13:54:10;6.55;;;3.63;;
68140;SDS011;54941;52.220;104.306;2023-04-19T13:56:38;6.43;;;3.63;;
68140;SDS011;54941;52.220;104.306;2023-04-19T13:59:04;6.63;;;3.70;;
68140;SDS011;54941;52.220;104.306;2023-04-19T14:01:31;6.97;;;3.42;;
68140;SDS011;54941;52.220;104.306;2023-04-19T14:03:58;6.18;;;3.45;;
68140;SDS011;54941;52.220;104.306;2023-04-19T14:06:24;5.82;;;3.60;;
68140;SDS011;54941;52.220;104.306;2023-04-19T14:08:50;6.35;;;3.13;;
68140;SDS011;54941;52.220;104.306;2023-04-19T14:11:17;6.78;;;3.67;;
68140;SDS011;54941;52.220;104.306;2023-04-19T14:13:45;7.10;;;3.85;;
68140;SDS011;54941;52.220;104.306;2023-04-19T14:16:11;4.47;;;3.03;;
68140;SDS011;54941;52.220;104.306;2023-04-19T14:18:37;6.18;;;3.88;;
68140;SDS011;54941;52.220;104.306;2023-04-19T14:21:04;6.05;;;3.53;;
68140;SDS011;54941;52.220;104.306;2023-04-19T14:23:31;6.88;;;3.30;;
68140;SDS011;54941;52.220;104.306;2023-04-19T14:25:58;7.43;;;4.20;;
68140;SDS011;54941;52.220;104.306;2023-04-19T14:28:24;6.95;;;3.38;;
68140;SDS011;54941;52.220;104.306;2023-04-19T14:30:52;5.95;;;3.53;;
68140;SDS011;54941;52.220;104.306;2023-04-19T14:33:18;7.25;;;3.28;;
68140;SDS011;54941;52.220;104.306;2023-04-19T14:35:45;6.88;;;3.55;;
68140;SDS011;54941;52.220;104.306;2023-04-19T14:38:11;5.38;;;3.40;;
68140;SDS011;54941;52.220;104.306;2023-04-19T14:40:37;8.98;;;4.10;;
68140;SDS011;54941;52.220;104.306;2023-04-19T14:43:04;5.80;;;3.40;;
68140;SDS011;54941;52.220;104.306;2023-04-19T14:45:30;6.78;;;3.85;;
68140;SDS011;54941;52.220;104.306;2023-04-19T14:47:58;7.57;;;3.95;;
68140;SDS011;54941;52.220;104.306;2023-04-19T14:50:24;7.90;;;4.93;;
68140;SDS011;54941;52.220;104.306;2023-04-19T14:52:51;5.82;;;3.28;;
68140;SDS011;54941;52.220;104.306;2023-04-19T14:55:17;5.03;;;2.97;;
68140;SDS011;54941;52.220;104.306;2023-04-19T14:57:43;6.18;;;2.92;;
68140;SDS011;54941;52.220;104.306;2023-04-19T15:00:10;7.30;;;3.30;;
68140;SDS011;54941;52.220;104.306;2023-04-19T15:02:37;5.82;;;3.45;;
68140;SDS011;54941;52.220;104.306;2023-04-19T15:05:06;7.30;;;3.72;;
68140;SDS011;54941;52.220;104.306;2023-04-19T15:07:33;6.38;;;3.22;;
68140;SDS011;54941;52.220;104.306;2023-04-19T15:09:59;10.80;;;4.68;;
68140;SDS011;54941;52.220;104.306;2023-04-19T15:12:25;13.60;;;4.97;;
68140;SDS011;54941;52.220;104.306;2023-04-19T15:14:52;12.35;;;5.25;;
68140;SDS011;54941;52.220;104.306;2023-04-19T15:17:18;15.23;;;5.28;;
68140;SDS011;54941;52.220;104.306;2023-04-19T15:19:44;14.55;;;4.28;;
68140;SDS011;54941;52.220;104.306;2023-04-19T15:22:12;11.55;;;4.22;;
68140;SDS011;54941;52.220;104.306;2023-04-19T15:24:38;10.38;;;3.97;;
68140;SDS011;54941;52.220;104.306;2023-04-19T15:27:05;8.10;;;3.30;;
68140;SDS011;54941;52.220;104.306;2023-04-19T15:29:31;5.45;;;3.00;;
68140;SDS011;54941;52.220;104.306;2023-04-19T15:31:57;7.85;;;4.15;;
68140;SDS011;54941;52.220;104.306;2023-04-19T15:34:24;4.20;;;2.85;;
68140;SDS011;54941;52.220;104.306;2023-04-19T15:36:50;6.60;;;3.58;;
68140;SDS011;54941;52.220;104.306;2023-04-19T15:39:18;6.00;;;3.30;;
68140;SDS011;54941;52.220;104.306;2023-04-19T15:41:45;4.80;;;3.10;;
68140;SDS011;54941;52.220;104.306;2023-04-19T15:44:11;6.05;;;3.58;;
68140;SDS011;54941;52.220;104.306;2023-04-19T15:46:38;6.10;;;3.67;;
68140;SDS011;54941;52.220;104.306;2023-04-19T15:49:04;6.53;;;3.90;;
68140;SDS011;54941;52.220;104.306;2023-04-19T15:51:30;5.50;;;3.15;;